createdAt,value
2022-10-17T00:01:00.577Z,12.09
2022-10-17T00:03:28.376Z,12.14
2022-10-17T00:05:56.630Z,12.24
2022-10-17T00:08:25.626Z,12.32
2022-10-17T00:11:02.521Z,12.37
2022-10-17T00:13:30.005Z,12.43
2022-10-17T00:15:58.372Z,12.50
2022-10-17T00:18:25.993Z,12.57
2022-10-17T00:20:53.962Z,12.58
2022-10-17T00:23:21.383Z,12.57
2022-10-17T00:25:58.901Z,12.57
2022-10-17T00:28:26.591Z,12.58
2022-10-17T00:31:03.303Z,12.58
2022-10-17T00:33:31.191Z,12.59
2022-10-17T00:36:14.735Z,12.57
2022-10-17T00:38:44.999Z,12.54
2022-10-17T00:41:15.512Z,12.53
2022-10-17T00:43:51.031Z,12.55
2022-10-17T00:46:19.199Z,12.63
2022-10-17T00:48:48.694Z,12.73
2022-10-17T00:51:19.271Z,12.80
2022-10-17T00:53:47.157Z,12.86
2022-10-17T00:56:15.510Z,12.94
2022-10-17T00:58:44.481Z,13.01
2022-10-17T01:01:12.073Z,13.04
2022-10-17T01:03:39.752Z,13.09
2022-10-17T01:06:07.146Z,13.07
2022-10-17T01:08:34.780Z,13.03
2022-10-17T01:11:05.274Z,13.03
2022-10-17T01:13:52.143Z,13.04
2022-10-17T01:16:49.043Z,13.01
2022-10-17T01:19:36.354Z,13.01
2022-10-17T01:22:14.175Z,12.99
2022-10-17T01:25:23.849Z,13.00
2022-10-17T01:28:05.838Z,13.01
2022-10-17T01:31:09.438Z,13.01
2022-10-17T01:33:53.306Z,12.99
2022-10-17T01:36:59.262Z,12.99
2022-10-17T01:39:34.453Z,12.99
2022-10-17T01:42:24.180Z,12.95
2022-10-17T01:45:03.409Z,12.89
2022-10-17T01:47:33.662Z,12.85
2022-10-17T01:50:12.381Z,12.81
2022-10-17T01:52:52.553Z,12.79
2022-10-17T01:55:27.380Z,12.76
2022-10-17T01:58:01.246Z,12.74
2022-10-17T02:00:31.360Z,12.72
2022-10-17T02:03:04.353Z,12.69
2022-10-17T02:05:39.109Z,12.67
2022-10-17T02:08:07.483Z,12.64
2022-10-17T02:10:47.051Z,12.62
2022-10-17T02:13:14.523Z,12.60
2022-10-17T02:16:23.205Z,12.56
2022-10-17T02:19:11.673Z,12.55
2022-10-17T02:22:00.707Z,12.57
2022-10-17T02:24:52.331Z,12.58
2022-10-17T02:27:43.724Z,12.57
2022-10-17T02:30:32.705Z,12.55
2022-10-17T02:33:06.193Z,12.55
2022-10-17T02:35:37.819Z,12.54
2022-10-17T02:38:08.731Z,12.55
2022-10-17T02:40:38.395Z,12.54
2022-10-17T02:43:05.861Z,12.54
2022-10-17T02:45:36.206Z,12.53
2022-10-17T02:48:05.514Z,12.55
2022-10-17T02:50:45.529Z,12.55
2022-10-17T02:53:17.811Z,12.57
2022-10-17T02:55:53.747Z,12.57
2022-10-17T02:58:25.601Z,12.57
2022-10-17T03:00:53.443Z,12.56
2022-10-17T03:03:29.978Z,12.55
2022-10-17T03:06:01.768Z,12.60
2022-10-17T03:08:29.282Z,12.63
2022-10-17T03:10:57.791Z,12.63
2022-10-17T03:13:27.705Z,12.63
2022-10-17T03:15:57.563Z,12.61
2022-10-17T03:18:25.227Z,12.69
2022-10-17T03:20:57.873Z,12.74
2022-10-17T03:23:25.579Z,12.72
2022-10-17T03:25:53.572Z,12.75
2022-10-17T03:28:21.200Z,12.81
2022-10-17T03:30:48.822Z,12.82
2022-10-17T03:33:16.749Z,12.84
2022-10-17T03:35:44.254Z,12.81
2022-10-17T03:38:11.863Z,12.81
2022-10-17T03:40:39.652Z,12.78
2022-10-17T03:43:07.106Z,12.73
2022-10-17T03:45:34.608Z,12.69
2022-10-17T03:48:02.192Z,12.69
2022-10-17T03:50:30.661Z,12.70
2022-10-17T03:52:59.378Z,12.70
2022-10-17T03:55:26.949Z,12.69
2022-10-17T03:57:54.392Z,12.68
2022-10-17T04:00:23.756Z,12.71
2022-10-17T04:02:57.988Z,12.71
2022-10-17T04:05:26.768Z,12.72
2022-10-17T04:07:54.224Z,12.74
2022-10-17T04:10:29.700Z,12.77
2022-10-17T04:12:57.472Z,12.76
2022-10-17T04:15:24.917Z,12.74
2022-10-17T04:17:53.151Z,12.71
2022-10-17T04:20:20.640Z,12.74
2022-10-17T04:22:48.024Z,12.72
2022-10-17T04:25:15.671Z,12.75
2022-10-17T04:27:46.525Z,12.78
2022-10-17T04:30:14.817Z,12.81
2022-10-17T04:32:42.921Z,12.83
2022-10-17T04:35:23.147Z,12.84
2022-10-17T04:38:01.237Z,12.86
2022-10-17T04:40:28.678Z,12.91
2022-10-17T04:42:56.543Z,12.94
2022-10-17T04:45:31.460Z,13.00
2022-10-17T04:48:03.441Z,13.02
2022-10-17T04:50:30.940Z,13.09
2022-10-17T04:53:17.342Z,13.11
2022-10-17T04:55:45.127Z,13.14
2022-10-17T04:58:12.522Z,13.16
2022-10-17T05:00:40.404Z,13.19
2022-10-17T05:03:15.110Z,13.22
2022-10-17T05:05:43.655Z,13.28
2022-10-17T05:08:13.046Z,13.30
2022-10-17T05:10:42.497Z,13.36
2022-10-17T05:13:11.240Z,13.40
2022-10-17T05:15:38.674Z,13.42
2022-10-17T05:18:06.942Z,13.50
2022-10-17T05:20:35.291Z,13.54
2022-10-17T05:23:02.817Z,13.61
2022-10-17T05:25:36.389Z,13.61
2022-10-17T05:28:03.855Z,13.60
2022-10-17T05:30:35.188Z,13.60
2022-10-17T05:33:06.624Z,13.62
2022-10-17T05:35:34.635Z,13.62
2022-10-17T05:38:02.611Z,13.60
2022-10-17T05:40:32.515Z,13.61
2022-10-17T05:42:59.983Z,13.65
2022-10-17T05:45:27.769Z,13.71
2022-10-17T05:47:55.891Z,13.71
2022-10-17T05:50:25.220Z,13.76
2022-10-17T05:53:19.398Z,13.84
2022-10-17T05:56:01.233Z,13.79
2022-10-17T06:01:31.015Z,13.80
2022-10-17T06:03:58.759Z,13.76
2022-10-17T06:06:26.605Z,13.80
2022-10-17T06:08:54.177Z,13.84
2022-10-17T06:11:28.014Z,13.91
2022-10-17T06:13:55.473Z,13.91
2022-10-17T06:16:25.749Z,13.98
2022-10-17T06:18:53.433Z,14.05
2022-10-17T06:21:26.593Z,14.05
2022-10-17T06:24:02.299Z,14.07
2022-10-17T06:26:33.629Z,14.14
2022-10-17T06:29:02.060Z,14.19
2022-10-17T06:31:35.493Z,14.22
2022-10-17T06:34:05.685Z,14.26
2022-10-17T06:36:33.601Z,14.30
2022-10-17T06:39:03.234Z,14.34
2022-10-17T06:41:37.202Z,14.39
2022-10-17T06:44:11.358Z,14.39
2022-10-17T06:46:57.983Z,14.41
2022-10-17T06:49:28.113Z,14.45
2022-10-17T06:52:20.144Z,14.53
2022-10-17T06:57:57.209Z,14.61
2022-10-17T07:00:51.103Z,14.69
2022-10-17T07:03:19.190Z,14.72
2022-10-17T07:05:52.449Z,14.80
2022-10-17T07:08:20.659Z,14.87
2022-10-17T07:10:48.792Z,14.97
2022-10-17T07:13:18.287Z,15.04
2022-10-17T07:15:46.391Z,15.11
2022-10-17T07:18:15.014Z,15.20
2022-10-17T07:20:42.554Z,15.30
2022-10-17T07:23:10.023Z,15.39
2022-10-17T07:25:40.050Z,15.46
2022-10-17T07:28:09.671Z,15.51
2022-10-17T07:30:38.643Z,15.54
2022-10-17T07:33:12.531Z,15.55
2022-10-17T07:35:43.257Z,15.56
2022-10-17T07:38:11.481Z,15.55
2022-10-17T07:40:39.086Z,15.58
2022-10-17T07:43:07.796Z,15.61
2022-10-17T07:45:35.212Z,15.65
2022-10-17T07:48:02.696Z,15.69
2022-10-17T07:50:33.217Z,15.77
2022-10-17T07:53:00.577Z,15.86
2022-10-17T07:55:28.178Z,15.94
2022-10-17T07:57:56.057Z,15.97
2022-10-17T08:00:23.913Z,16.01
2022-10-17T08:02:51.902Z,16.06
2022-10-17T08:05:19.375Z,16.11
2022-10-17T08:07:47.007Z,16.13
2022-10-17T08:10:16.403Z,16.19
2022-10-17T08:12:43.950Z,16.25
2022-10-17T08:15:11.758Z,16.29
2022-10-17T08:17:39.584Z,16.30
2022-10-17T08:20:07.423Z,16.33
2022-10-17T08:22:35.135Z,16.33
2022-10-17T08:25:02.726Z,16.30
2022-10-17T08:27:30.651Z,16.29
2022-10-17T08:29:58.049Z,16.30
2022-10-17T08:32:28.158Z,16.33
2022-10-17T08:34:56.838Z,16.40
2022-10-17T08:37:24.410Z,16.48
2022-10-17T08:39:51.961Z,16.59
2022-10-17T08:42:49.559Z,16.66
2022-10-17T08:45:23.843Z,16.68
2022-10-17T08:47:59.566Z,16.60
2022-10-17T08:50:45.344Z,16.50
2022-10-17T08:53:44.974Z,16.45
2022-10-17T08:56:25.015Z,16.40
2022-10-17T08:59:14.786Z,16.39
2022-10-17T09:01:58.953Z,16.37
2022-10-17T09:04:41.658Z,16.36
2022-10-17T09:07:21.633Z,16.35
2022-10-17T09:10:17.334Z,16.36
2022-10-17T09:13:20.506Z,16.39
2022-10-17T09:16:07.681Z,16.39
2022-10-17T09:18:43.019Z,16.36
2022-10-17T09:21:23.257Z,16.39
2022-10-17T09:24:08.832Z,16.40
2022-10-17T09:26:39.367Z,16.42
2022-10-17T09:29:16.925Z,16.45
2022-10-17T09:31:51.362Z,16.44
2022-10-17T09:34:20.373Z,16.43
2022-10-17T09:36:49.362Z,16.44
2022-10-17T09:39:32.161Z,16.41
2022-10-17T09:42:01.611Z,16.38
2022-10-17T09:44:41.342Z,16.36
2022-10-17T09:47:24.099Z,16.35
2022-10-17T09:49:52.349Z,16.33
2022-10-17T09:52:42.214Z,16.31
2022-10-17T09:55:24.240Z,16.29
2022-10-17T09:58:06.060Z,16.26
2022-10-17T10:00:42.900Z,16.25
2022-10-17T10:03:13.038Z,16.23
2022-10-17T10:05:41.952Z,16.22
2022-10-17T10:08:17.585Z,16.23
2022-10-17T10:10:45.642Z,16.24
2022-10-17T10:13:13.105Z,16.24
2022-10-17T10:15:43.926Z,16.22
2022-10-17T10:18:26.718Z,16.24
2022-10-17T10:21:06.126Z,16.27
2022-10-17T10:23:34.783Z,16.30
2022-10-17T10:26:04.477Z,16.31
2022-10-17T10:28:36.463Z,16.32
2022-10-17T10:31:07.839Z,16.34
2022-10-17T10:33:41.799Z,16.33
2022-10-17T10:36:10.022Z,16.33
2022-10-17T10:38:42.578Z,16.38
2022-10-17T10:41:11.694Z,16.48
2022-10-17T10:43:43.537Z,16.54
2022-10-17T10:46:28.676Z,16.56
2022-10-17T10:49:00.219Z,16.56
2022-10-17T10:51:38.832Z,16.59
2022-10-17T10:54:16.802Z,16.74
2022-10-17T10:57:00.194Z,16.81
2022-10-17T10:59:33.201Z,16.81
2022-10-17T11:02:13.112Z,16.79
2022-10-17T11:04:49.828Z,16.74
2022-10-17T11:07:22.717Z,16.69
2022-10-17T11:10:05.970Z,16.68
2022-10-17T11:12:45.689Z,16.70
2022-10-17T11:15:19.786Z,16.74
2022-10-17T11:18:07.626Z,16.75
2022-10-17T11:21:00.178Z,16.76
2022-10-17T11:23:40.259Z,16.68
2022-10-17T11:26:16.414Z,16.62
2022-10-17T11:28:43.917Z,16.70
2022-10-17T11:31:16.220Z,16.70
2022-10-17T11:33:53.049Z,16.67
2022-10-17T11:36:26.456Z,16.60
2022-10-17T11:39:05.362Z,16.63
2022-10-17T11:41:47.465Z,16.65
2022-10-17T11:44:34.469Z,16.66
2022-10-17T11:47:31.111Z,16.66
2022-10-17T11:53:16.821Z,16.63
2022-10-17T11:55:45.646Z,16.67
2022-10-17T11:58:31.934Z,16.75
2022-10-17T12:01:17.914Z,16.99
2022-10-17T12:04:07.240Z,17.09
2022-10-17T12:06:47.587Z,17.17
2022-10-17T12:09:34.919Z,17.30
2022-10-17T12:12:04.063Z,17.32
2022-10-17T12:14:46.567Z,17.19
2022-10-17T12:17:23.407Z,17.04
2022-10-17T12:19:51.074Z,16.94
2022-10-17T12:22:28.686Z,16.79
2022-10-17T12:25:04.275Z,16.67
2022-10-17T12:27:46.064Z,16.56
2022-10-17T12:30:16.671Z,16.52
2022-10-17T12:33:07.993Z,16.47
2022-10-17T12:35:37.942Z,16.44
2022-10-17T12:38:17.582Z,16.46
2022-10-17T12:40:49.049Z,16.54
2022-10-17T12:43:17.011Z,16.63
2022-10-17T12:45:46.975Z,16.72
2022-10-17T12:48:34.347Z,16.86
2022-10-17T12:54:00.727Z,17.01
2022-10-17T12:56:49.738Z,16.99
2022-10-17T12:59:22.479Z,17.03
2022-10-17T13:01:54.714Z,17.05
2022-10-17T13:04:22.693Z,17.08
2022-10-17T13:06:54.412Z,17.08
2022-10-17T13:09:25.074Z,17.11
2022-10-17T13:11:54.539Z,17.13
2022-10-17T13:14:23.404Z,17.07
2022-10-17T13:16:55.119Z,17.04
2022-10-17T13:19:25.689Z,16.97
2022-10-17T13:22:06.849Z,16.89
2022-10-17T13:24:37.643Z,16.92
2022-10-17T13:27:21.249Z,16.85
2022-10-17T13:29:48.732Z,16.85
2022-10-17T13:32:16.336Z,16.86
2022-10-17T13:34:43.948Z,16.88
2022-10-17T13:37:15.735Z,16.90
2022-10-17T13:39:55.999Z,16.92
2022-10-17T13:42:32.121Z,16.93
2022-10-17T13:45:00.023Z,16.86
2022-10-17T13:47:29.745Z,16.87
2022-10-17T13:49:58.272Z,16.92
2022-10-17T13:52:30.292Z,16.92
2022-10-17T13:55:20.118Z,16.91
2022-10-17T13:57:47.746Z,16.91
2022-10-17T14:00:23.185Z,17.00
2022-10-17T14:02:50.837Z,17.13
2022-10-17T14:05:20.645Z,17.16
2022-10-17T14:08:14.476Z,17.15
2022-10-17T14:10:45.297Z,17.06
2022-10-17T14:13:34.063Z,17.05
2022-10-17T14:16:04.345Z,17.01
2022-10-17T14:18:36.568Z,16.90
2022-10-17T14:24:13.350Z,16.88
2022-10-17T14:26:52.266Z,16.84
2022-10-17T14:29:29.678Z,16.85
2022-10-17T14:32:08.684Z,16.83
2022-10-17T14:34:40.672Z,16.77
2022-10-17T14:37:31.045Z,16.76
2022-10-17T14:40:00.696Z,16.76
2022-10-17T14:42:28.614Z,16.72
2022-10-17T14:45:03.799Z,16.68
2022-10-17T14:47:43.280Z,16.72
2022-10-17T14:50:11.284Z,16.71
2022-10-17T14:52:39.901Z,16.70
2022-10-17T14:55:28.543Z,16.69
2022-10-17T14:57:56.628Z,16.62
2022-10-17T15:00:24.634Z,16.58
2022-10-17T15:02:54.582Z,16.51
2022-10-17T15:05:23.446Z,16.44
2022-10-17T15:07:51.125Z,16.42
2022-10-17T15:10:33.356Z,16.34
2022-10-17T15:13:26.710Z,16.32
2022-10-17T15:15:52.045Z,16.29
2022-10-17T15:18:19.919Z,16.26
2022-10-17T15:20:49.607Z,16.22
2022-10-17T15:23:23.121Z,16.16
2022-10-17T15:25:50.617Z,16.13
2022-10-17T15:28:17.999Z,16.08
2022-10-17T15:30:45.867Z,16.05
2022-10-17T15:33:13.397Z,16.02
2022-10-17T15:35:42.901Z,15.97
2022-10-17T15:38:17.330Z,15.93
2022-10-17T15:40:45.954Z,15.91
2022-10-17T15:43:17.373Z,15.86
2022-10-17T15:45:47.333Z,15.85
2022-10-17T15:48:29.948Z,15.79
2022-10-17T15:50:58.060Z,15.75
2022-10-17T15:53:25.492Z,15.70
2022-10-17T15:55:53.043Z,15.63
2022-10-17T15:58:20.710Z,15.59
2022-10-17T16:00:48.686Z,15.56
2022-10-17T16:03:16.257Z,15.50
2022-10-17T16:05:43.798Z,15.44
2022-10-17T16:08:11.289Z,15.40
2022-10-17T16:10:40.516Z,15.35
2022-10-17T16:13:17.514Z,15.29
2022-10-17T16:15:44.855Z,15.24
2022-10-17T16:18:12.405Z,15.20
2022-10-17T16:20:39.969Z,15.14
2022-10-17T16:23:08.508Z,15.09
2022-10-17T16:25:36.065Z,15.03
2022-10-17T16:28:04.240Z,14.98
2022-10-17T16:30:32.945Z,14.93
2022-10-17T16:33:00.472Z,14.88
2022-10-17T16:35:33.258Z,14.86
2022-10-17T16:38:05.789Z,14.82
2022-10-17T16:40:33.693Z,14.77
2022-10-17T16:43:01.131Z,14.72
2022-10-17T16:45:28.781Z,14.67
2022-10-17T16:47:56.384Z,14.66
2022-10-17T16:50:24.563Z,14.63
2022-10-17T16:52:52.099Z,14.63
2022-10-17T16:55:19.549Z,14.61
2022-10-17T16:57:49.000Z,14.57
2022-10-17T17:00:17.849Z,14.55
2022-10-17T17:02:48.230Z,14.52
2022-10-17T17:05:15.919Z,14.49
2022-10-17T17:07:43.597Z,14.46
2022-10-17T17:10:11.055Z,14.48
2022-10-17T17:12:38.660Z,14.41
2022-10-17T17:15:06.346Z,14.44
2022-10-17T17:17:49.524Z,14.41
2022-10-17T17:20:19.041Z,14.37
2022-10-17T17:22:46.540Z,14.38
2022-10-17T17:25:14.268Z,14.38
2022-10-17T17:27:41.818Z,14.31
2022-10-17T17:30:09.649Z,14.32
2022-10-17T17:32:37.052Z,14.31
2022-10-17T17:35:05.081Z,14.30
2022-10-17T17:37:32.836Z,14.28
2022-10-17T17:40:00.477Z,14.25
2022-10-17T17:42:28.258Z,14.23
2022-10-17T17:44:55.628Z,14.21
2022-10-17T17:47:23.042Z,14.18
2022-10-17T17:49:50.631Z,14.18
2022-10-17T17:52:18.203Z,14.15
2022-10-17T17:54:45.659Z,14.15
2022-10-17T17:57:13.307Z,14.13
2022-10-17T17:59:41.527Z,14.12
2022-10-17T18:02:10.930Z,14.13
2022-10-17T18:04:38.829Z,14.11
2022-10-17T18:07:06.398Z,14.09
2022-10-17T18:09:33.859Z,14.05
2022-10-17T18:12:01.255Z,14.05
2022-10-17T18:14:28.704Z,14.03
2022-10-17T18:16:56.118Z,14.01
2022-10-17T18:19:24.219Z,14.01
2022-10-17T18:21:51.658Z,14.01
2022-10-17T18:24:19.483Z,13.99
2022-10-17T18:26:47.190Z,14.00
2022-10-17T18:29:15.022Z,13.97
2022-10-17T18:31:43.030Z,13.97
2022-10-17T18:34:10.714Z,13.94
2022-10-17T18:36:38.321Z,13.91
2022-10-17T18:39:06.242Z,13.89
2022-10-17T18:41:34.183Z,13.89
2022-10-17T18:44:05.264Z,13.89
2022-10-17T18:46:40.856Z,13.84
2022-10-17T18:49:14.423Z,13.78
2022-10-17T18:51:43.081Z,13.80
2022-10-17T18:54:17.142Z,13.78
2022-10-17T18:56:45.158Z,13.79
2022-10-17T18:59:12.687Z,13.77
2022-10-17T19:01:40.191Z,13.78
2022-10-17T19:04:07.723Z,13.77
2022-10-17T19:06:35.240Z,13.78
2022-10-17T19:09:05.761Z,13.78
2022-10-17T19:11:34.879Z,13.77
2022-10-17T19:14:04.592Z,13.77
2022-10-17T19:16:37.607Z,13.75
2022-10-17T19:19:10.229Z,13.78
2022-10-17T19:21:38.463Z,13.77
2022-10-17T19:24:08.045Z,13.76
2022-10-17T19:26:37.537Z,13.77
2022-10-17T19:29:06.219Z,13.75
2022-10-17T19:31:38.140Z,13.73
2022-10-17T19:34:05.812Z,13.69
2022-10-17T19:36:34.976Z,13.71
2022-10-17T19:39:05.954Z,13.71
2022-10-17T19:41:33.915Z,13.71
2022-10-17T19:44:01.425Z,13.72
2022-10-17T19:46:30.571Z,13.71
2022-10-17T19:48:58.249Z,13.68
2022-10-17T19:51:26.837Z,13.67
2022-10-17T19:53:56.305Z,13.68
2022-10-17T19:56:25.686Z,13.66
2022-10-17T19:58:54.545Z,13.65
2022-10-17T20:01:29.400Z,13.67
2022-10-17T20:03:57.416Z,13.62
2022-10-17T20:06:25.430Z,13.60
2022-10-17T20:08:53.007Z,13.57
2022-10-17T20:11:24.417Z,13.54
2022-10-17T20:13:53.563Z,13.53
2022-10-17T20:16:26.739Z,13.51
2022-10-17T20:18:56.661Z,13.51
2022-10-17T20:21:35.310Z,13.48
2022-10-17T20:24:05.171Z,13.46
2022-10-17T20:26:38.267Z,13.43
2022-10-17T20:29:11.789Z,13.38
2022-10-17T20:31:40.911Z,13.39
2022-10-17T20:34:12.654Z,13.38
2022-10-17T20:36:40.415Z,13.38
2022-10-17T20:39:09.800Z,13.31
2022-10-17T20:41:37.659Z,13.27
2022-10-17T20:44:06.968Z,13.39
2022-10-17T20:46:37.297Z,13.37
2022-10-17T20:49:07.364Z,13.31
2022-10-17T20:51:35.613Z,13.29
2022-10-17T20:54:03.832Z,13.30
2022-10-17T20:56:32.925Z,13.36
2022-10-17T20:59:03.287Z,13.38
2022-10-17T21:01:33.095Z,13.38
2022-10-17T21:04:21.489Z,13.38
2022-10-17T21:06:49.179Z,13.29
2022-10-17T21:09:16.649Z,13.21
2022-10-17T21:11:44.081Z,13.21
2022-10-17T21:14:12.591Z,13.16
2022-10-17T21:16:41.294Z,13.13
2022-10-17T21:19:10.644Z,13.12
2022-10-17T21:21:41.722Z,13.16
2022-10-17T21:24:14.311Z,13.19
2022-10-17T21:26:43.583Z,13.25
2022-10-17T21:29:13.158Z,13.30
2022-10-17T21:31:43.402Z,13.25
2022-10-17T21:34:21.229Z,13.19
2022-10-17T21:36:48.712Z,13.16
2022-10-17T21:39:16.480Z,13.23
2022-10-17T21:41:44.705Z,13.20
2022-10-17T21:44:14.876Z,13.18
2022-10-17T21:46:43.126Z,13.14
2022-10-17T21:49:15.633Z,13.19
2022-10-17T21:51:44.733Z,13.17
2022-10-17T21:54:12.331Z,13.11
2022-10-17T21:56:41.010Z,13.08
2022-10-17T21:59:08.766Z,13.04
2022-10-17T22:01:41.881Z,13.03
2022-10-17T22:04:12.757Z,12.99
2022-10-17T22:06:42.140Z,12.99
2022-10-17T22:09:16.780Z,12.95
2022-10-17T22:11:47.561Z,12.97
2022-10-17T22:14:17.409Z,12.99
2022-10-17T22:16:46.472Z,12.94
2022-10-17T22:19:16.930Z,12.94
2022-10-17T22:21:45.305Z,12.95
2022-10-17T22:24:14.880Z,12.97
2022-10-17T22:26:43.023Z,12.98
2022-10-17T22:29:10.760Z,12.97
2022-10-17T22:31:38.760Z,12.94
2022-10-17T22:34:07.071Z,12.90
2022-10-17T22:36:35.743Z,12.91
2022-10-17T22:39:04.242Z,12.90
2022-10-17T22:41:31.854Z,12.91
2022-10-17T22:43:59.503Z,12.91
2022-10-17T22:46:27.597Z,12.87
2022-10-17T22:48:55.009Z,12.91
2022-10-17T22:53:55.081Z,12.92
2022-10-17T22:56:23.690Z,12.96
2022-10-17T22:58:52.093Z,12.98
2022-10-17T23:01:22.273Z,12.98
2022-10-17T23:03:50.983Z,12.98
2022-10-17T23:06:19.348Z,12.99
2022-10-17T23:08:47.145Z,12.98
2022-10-17T23:11:14.906Z,12.97
2022-10-17T23:13:42.341Z,12.97
2022-10-17T23:16:10.079Z,12.94
2022-10-17T23:18:38.266Z,12.94
2022-10-17T23:21:06.178Z,12.93
2022-10-17T23:23:33.842Z,12.93
2022-10-17T23:26:07.162Z,12.91
2022-10-17T23:28:36.016Z,12.88
2022-10-17T23:31:10.962Z,12.88
2022-10-17T23:33:41.233Z,12.88
2022-10-17T23:36:10.637Z,12.89
2022-10-17T23:38:39.467Z,12.88
2022-10-17T23:41:07.444Z,12.87
2022-10-17T23:43:34.924Z,12.87
2022-10-17T23:46:03.236Z,12.90
2022-10-17T23:48:31.001Z,12.93
2022-10-17T23:50:58.427Z,12.92
2022-10-17T23:53:26.667Z,12.92
2022-10-17T23:55:54.041Z,12.93
2022-10-17T23:58:21.616Z,12.93
